Time;durP1;ratioP1;P1;durP2;ratioP2;P2;SDS_P1;SDS_P2;PMS_P1;PMS_P2;Temp;Humidity;BMP_temperature;BMP_pressure;BME280_temperature;BME280_humidity;BME280_pressure;Samples;Min_cycle;Max_cycle;Signal;HPM_P1;HPM_P2
2021/10/01 00:01:13;;;;;;;0.40;0.40;;;;;;;;;;5012679;28;20192;-64
2021/10/01 00:03:39;;;;;;;0.40;0.40;;;;;;;;;;5012224;28;20212;-65
2021/10/01 00:06:05;;;;;;;0.30;0.30;;;;;;;;;;5012796;28;20205;-64
2021/10/01 00:08:32;;;;;;;0.40;0.40;;;;;;;;;;5012306;28;20460;-64
2021/10/01 00:10:58;;;;;;;0.40;0.40;;;;;;;;;;5012417;28;20176;-64
2021/10/01 00:13:24;;;;;;;0.40;0.40;;;;;;;;;;5012650;28;20189;-64
2021/10/01 00:15:50;;;;;;;0.40;0.40;;;;;;;;;;5012676;28;20201;-64
2021/10/01 00:18:16;;;;;;;0.40;0.40;;;;;;;;;;5012373;28;20225;-64
2021/10/01 00:20:42;;;;;;;0.40;0.40;;;;;;;;;;5012267;28;20185;-65
2021/10/01 00:23:08;;;;;;;0.38;0.38;;;;;;;;;;5012572;28;20174;-65
2021/10/01 00:25:34;;;;;;;0.40;0.40;;;;;;;;;;5012260;28;20267;-65
2021/10/01 00:28:01;;;;;;;0.40;0.40;;;;;;;;;;5012072;28;20291;-64
2021/10/01 00:30:27;;;;;;;0.30;0.30;;;;;;;;;;5011592;28;20416;-65
2021/10/01 00:32:53;;;;;;;0.40;0.40;;;;;;;;;;5012120;28;20265;-64
2021/10/01 00:35:19;;;;;;;0.30;0.30;;;;;;;;;;5012293;28;20177;-64
2021/10/01 00:37:46;;;;;;;0.40;0.40;;;;;;;;;;5012220;28;20204;-64
2021/10/01 00:40:12;;;;;;;0.40;0.40;;;;;;;;;;5012146;28;20596;-64
2021/10/01 00:42:38;;;;;;;0.30;0.30;;;;;;;;;;5012499;28;20208;-64
2021/10/01 00:45:05;;;;;;;0.40;0.40;;;;;;;;;;5012139;28;20185;-64
2021/10/01 00:47:31;;;;;;;0.40;0.40;;;;;;;;;;5012398;28;20312;-65
2021/10/01 00:49:57;;;;;;;0.40;0.40;;;;;;;;;;5012375;28;20236;-64
2021/10/01 00:52:23;;;;;;;0.40;0.40;;;;;;;;;;5011873;28;20210;-64
2021/10/01 00:54:49;;;;;;;0.40;0.40;;;;;;;;;;5012349;28;20873;-64
2021/10/01 00:57:15;;;;;;;0.40;0.40;;;;;;;;;;5011957;28;20197;-64
2021/10/01 00:59:42;;;;;;;0.40;0.40;;;;;;;;;;5012123;28;20222;-65
2021/10/01 01:02:08;;;;;;;0.40;0.40;;;;;;;;;;5011568;28;20184;-65
2021/10/01 01:04:34;;;;;;;0.40;0.40;;;;;;;;;;5011698;28;20176;-64
2021/10/01 01:07:09;;;;;;;0.40;0.40;;;;;;;;;;5011648;28;20181;-64
2021/10/01 01:09:54;;;;;;;0.40;0.40;;;;;;;;;;5011534;28;20291;-65
2021/10/01 01:12:21;;;;;;;0.40;0.40;;;;;;;;;;5011315;28;20692;-64
2021/10/01 01:14:47;;;;;;;0.40;0.40;;;;;;;;;;5011345;28;20291;-64
2021/10/01 01:17:17;;;;;;;0.40;0.40;;;;;;;;;;5011454;28;20196;-64
2021/10/01 01:19:58;;;;;;;0.40;0.40;;;;;;;;;;5011687;28;20515;-64
2021/10/01 01:22:24;;;;;;;0.40;0.40;;;;;;;;;;5010991;28;20188;-65
2021/10/01 01:24:50;;;;;;;0.40;0.40;;;;;;;;;;5011597;28;20184;-64
2021/10/01 01:27:20;;;;;;;0.40;0.40;;;;;;;;;;5011685;28;20936;-64
2021/10/01 01:29:55;;;;;;;0.30;0.30;;;;;;;;;;5011366;28;20900;-64
2021/10/01 01:32:22;;;;;;;0.40;0.40;;;;;;;;;;5011210;28;20180;-65
2021/10/01 01:34:53;;;;;;;0.40;0.40;;;;;;;;;;5011386;28;20267;-64
2021/10/01 01:37:25;;;;;;;0.40;0.40;;;;;;;;;;5011345;28;20235;-65
2021/10/01 01:39:51;;;;;;;0.40;0.40;;;;;;;;;;5010165;28;20177;-65
2021/10/01 01:42:18;;;;;;;0.40;0.40;;;;;;;;;;5012656;28;20183;-64
2021/10/01 01:44:45;;;;;;;0.50;0.50;;;;;;;;;;5015308;28;20204;-65
2021/10/01 01:47:12;;;;;;;0.40;0.40;;;;;;;;;;5015448;28;20252;-64
2021/10/01 01:49:38;;;;;;;0.40;0.40;;;;;;;;;;5014871;28;20208;-65
2021/10/01 01:52:05;;;;;;;0.40;0.40;;;;;;;;;;5014810;28;20212;-64
2021/10/01 01:54:32;;;;;;;0.40;0.40;;;;;;;;;;5014962;28;20178;-64
2021/10/01 01:56:59;;;;;;;0.40;0.40;;;;;;;;;;5015048;28;20200;-64
2021/10/01 01:59:25;;;;;;;0.40;0.40;;;;;;;;;;5014731;28;20264;-64
2021/10/01 02:01:51;;;;;;;0.40;0.40;;;;;;;;;;5014879;28;20271;-64
2021/10/01 02:04:18;;;;;;;0.40;0.40;;;;;;;;;;5014824;28;20275;-64
2021/10/01 02:06:45;;;;;;;0.40;0.40;;;;;;;;;;5014782;28;20211;-64
2021/10/01 02:09:12;;;;;;;0.40;0.40;;;;;;;;;;5014148;28;20252;-64
2021/10/01 02:11:39;;;;;;;0.40;0.40;;;;;;;;;;5014048;28;20239;-64
2021/10/01 02:14:05;;;;;;;0.40;0.40;;;;;;;;;;5013497;28;20232;-64
2021/10/01 02:16:31;;;;;;;0.40;0.40;;;;;;;;;;5014619;28;20191;-64
2021/10/01 02:18:59;;;;;;;0.40;0.40;;;;;;;;;;5014245;28;20288;-65
2021/10/01 02:21:25;;;;;;;0.40;0.40;;;;;;;;;;5014551;28;20212;-64
2021/10/01 02:23:51;;;;;;;0.40;0.40;;;;;;;;;;5014433;28;20557;-65
2021/10/01 02:26:39;;;;;;;0.40;0.40;;;;;;;;;;5014694;28;20277;-64
2021/10/01 02:29:17;;;;;;;0.50;0.50;;;;;;;;;;5014292;28;20698;-64
2021/10/01 02:31:52;;;;;;;0.40;0.40;;;;;;;;;;5014233;28;20205;-64
2021/10/01 02:34:21;;;;;;;0.43;0.43;;;;;;;;;;5013975;28;20184;-64
2021/10/01 02:36:47;;;;;;;0.40;0.40;;;;;;;;;;5012996;28;20188;-64
2021/10/01 02:39:13;;;;;;;0.40;0.40;;;;;;;;;;5014188;28;20216;-64
2021/10/01 02:41:39;;;;;;;0.40;0.40;;;;;;;;;;5013695;28;20181;-64
2021/10/01 02:44:06;;;;;;;0.40;0.40;;;;;;;;;;5014464;28;20224;-64
2021/10/01 02:46:32;;;;;;;0.40;0.40;;;;;;;;;;5014049;28;20431;-64
2021/10/01 02:48:59;;;;;;;0.40;0.40;;;;;;;;;;5014109;28;20205;-64
2021/10/01 02:51:28;;;;;;;0.40;0.40;;;;;;;;;;5013896;28;20934;-64
2021/10/01 02:54:04;;;;;;;0.40;0.40;;;;;;;;;;5013128;28;20173;-64
2021/10/01 02:56:33;;;;;;;0.40;0.40;;;;;;;;;;5014151;28;20190;-65
2021/10/01 02:59:02;;;;;;;0.40;0.40;;;;;;;;;;5013313;28;20223;-64
2021/10/01 03:01:29;;;;;;;0.40;0.40;;;;;;;;;;5013853;28;20173;-64
2021/10/01 03:03:59;;;;;;;0.40;0.40;;;;;;;;;;5013517;28;20276;-64
2021/10/01 03:06:26;;;;;;;0.50;0.50;;;;;;;;;;5013682;28;20271;-64
2021/10/01 03:08:53;;;;;;;0.43;0.43;;;;;;;;;;5013720;28;20209;-64
2021/10/01 03:11:20;;;;;;;0.40;0.40;;;;;;;;;;5013588;28;20184;-64
2021/10/01 03:13:47;;;;;;;0.40;0.40;;;;;;;;;;5013583;28;20575;-64
2021/10/01 03:16:13;;;;;;;0.40;0.40;;;;;;;;;;5013581;28;20217;-65
2021/10/01 03:18:40;;;;;;;0.40;0.40;;;;;;;;;;5013259;28;20239;-64
2021/10/01 03:21:06;;;;;;;0.40;0.40;;;;;;;;;;5012953;28;20193;-64
2021/10/01 03:23:33;;;;;;;0.40;0.40;;;;;;;;;;5013437;28;21019;-64
2021/10/01 03:25:59;;;;;;;0.40;0.40;;;;;;;;;;5013502;28;20189;-64
2021/10/01 03:28:25;;;;;;;0.40;0.40;;;;;;;;;;5013494;28;20569;-64
2021/10/01 03:30:51;;;;;;;0.40;0.40;;;;;;;;;;5013842;28;20180;-64
2021/10/01 03:33:18;;;;;;;0.40;0.40;;;;;;;;;;5013578;28;20728;-64
2021/10/01 03:35:44;;;;;;;0.40;0.40;;;;;;;;;;5013735;28;20252;-65
2021/10/01 03:38:11;;;;;;;0.40;0.40;;;;;;;;;;5013258;28;20229;-64
2021/10/01 03:40:37;;;;;;;0.40;0.40;;;;;;;;;;5013389;28;20220;-64
2021/10/01 03:43:03;;;;;;;0.40;0.40;;;;;;;;;;5013459;28;20245;-64
2021/10/01 03:45:29;;;;;;;0.40;0.40;;;;;;;;;;5013791;28;20638;-64
2021/10/01 03:47:55;;;;;;;0.40;0.40;;;;;;;;;;5013171;28;20600;-64
2021/10/01 03:50:22;;;;;;;0.40;0.40;;;;;;;;;;5012615;28;20181;-64
2021/10/01 03:52:48;;;;;;;0.50;0.50;;;;;;;;;;5013765;28;20172;-64
2021/10/01 03:55:20;;;;;;;0.40;0.40;;;;;;;;;;5013414;28;20255;-64
2021/10/01 03:57:47;;;;;;;0.40;0.40;;;;;;;;;;5013265;28;20247;-64
2021/10/01 04:00:13;;;;;;;0.40;0.40;;;;;;;;;;5012943;28;20182;-64
2021/10/01 04:02:39;;;;;;;0.40;0.40;;;;;;;;;;5013256;28;20228;-64
2021/10/01 04:05:05;;;;;;;0.40;0.40;;;;;;;;;;5012680;28;20178;-64
2021/10/01 04:07:31;;;;;;;0.40;0.40;;;;;;;;;;5012831;28;20558;-64
2021/10/01 04:09:57;;;;;;;0.40;0.40;;;;;;;;;;5012665;28;20226;-64
2021/10/01 04:12:23;;;;;;;0.40;0.40;;;;;;;;;;5012494;28;20210;-64
2021/10/01 04:14:50;;;;;;;0.40;0.40;;;;;;;;;;5012211;28;20181;-64
2021/10/01 04:17:16;;;;;;;0.35;0.35;;;;;;;;;;5011003;28;20576;-64
2021/10/01 04:19:43;;;;;;;0.40;0.40;;;;;;;;;;5012270;28;20181;-64
2021/10/01 04:22:09;;;;;;;0.40;0.40;;;;;;;;;;5012084;28;20270;-64
2021/10/01 04:24:35;;;;;;;0.40;0.40;;;;;;;;;;5012383;28;20684;-64
2021/10/01 04:27:01;;;;;;;0.40;0.40;;;;;;;;;;5012170;28;20423;-64
2021/10/01 04:29:27;;;;;;;0.40;0.40;;;;;;;;;;5012081;28;20298;-64
2021/10/01 04:31:53;;;;;;;0.40;0.40;;;;;;;;;;5012333;28;20216;-64
2021/10/01 04:34:19;;;;;;;0.40;0.40;;;;;;;;;;5010622;28;20555;-65
2021/10/01 04:36:45;;;;;;;0.40;0.40;;;;;;;;;;5012401;28;20731;-64
2021/10/01 04:39:13;;;;;;;0.40;0.40;;;;;;;;;;5011886;28;20211;-64
2021/10/01 04:41:41;;;;;;;0.40;0.40;;;;;;;;;;5017658;28;20259;-64
2021/10/01 04:44:07;;;;;;;0.40;0.40;;;;;;;;;;5031793;28;20180;-64
2021/10/01 04:46:33;;;;;;;0.40;0.40;;;;;;;;;;5031879;28;20194;-64
2021/10/01 04:48:59;;;;;;;0.40;0.40;;;;;;;;;;5031774;28;20230;-64
2021/10/01 04:51:25;;;;;;;0.40;0.40;;;;;;;;;;5031723;28;20175;-64
2021/10/01 04:53:51;;;;;;;0.40;0.40;;;;;;;;;;5032083;28;20168;-64
2021/10/01 04:56:17;;;;;;;0.40;0.40;;;;;;;;;;5031865;28;20162;-65
2021/10/01 04:58:43;;;;;;;0.40;0.40;;;;;;;;;;5031718;28;20227;-65
2021/10/01 05:01:09;;;;;;;0.40;0.40;;;;;;;;;;5031494;28;20183;-64
2021/10/01 05:03:35;;;;;;;0.40;0.40;;;;;;;;;;5031710;28;20449;-64
2021/10/01 05:06:01;;;;;;;0.40;0.40;;;;;;;;;;5031749;28;20182;-64
2021/10/01 05:08:27;;;;;;;0.40;0.40;;;;;;;;;;5031656;28;20207;-64
2021/10/01 05:10:53;;;;;;;0.30;0.30;;;;;;;;;;5031485;28;20495;-64
2021/10/01 05:13:19;;;;;;;0.40;0.40;;;;;;;;;;5022130;28;20432;-64
2021/10/01 05:15:46;;;;;;;0.40;0.40;;;;;;;;;;5011808;28;20179;-64
2021/10/01 05:18:14;;;;;;;0.40;0.40;;;;;;;;;;5015254;28;20462;-64
2021/10/01 05:20:40;;;;;;;0.40;0.40;;;;;;;;;;5046491;22;20222;-67
2021/10/01 05:23:06;;;;;;;0.40;0.40;;;;;;;;;;5075550;28;20585;-67
2021/10/01 05:25:32;;;;;;;0.40;0.40;;;;;;;;;;5072782;28;20260;-66
2021/10/01 05:27:58;;;;;;;0.40;0.40;;;;;;;;;;5064865;28;20567;-66
2021/10/01 05:30:24;;;;;;;0.40;0.40;;;;;;;;;;5075096;28;20748;-67
2021/10/01 05:32:50;;;;;;;0.40;0.40;;;;;;;;;;5074670;28;20190;-66
2021/10/01 05:35:16;;;;;;;0.40;0.40;;;;;;;;;;5062015;28;20213;-66
2021/10/01 05:37:42;;;;;;;0.40;0.40;;;;;;;;;;5072379;28;20544;-66
2021/10/01 05:40:08;;;;;;;0.40;0.40;;;;;;;;;;5059581;28;20229;-65
2021/10/01 05:42:34;;;;;;;0.50;0.50;;;;;;;;;;5067917;28;20182;-67
2021/10/01 05:45:02;;;;;;;0.40;0.40;;;;;;;;;;5063849;28;20230;-64
2021/10/01 05:47:28;;;;;;;0.40;0.40;;;;;;;;;;5073980;28;20260;-67
2021/10/01 05:50:01;;;;;;;0.40;0.40;;;;;;;;;;5075365;28;20349;-64
2021/10/01 05:54:59;;;;;;;0.40;0.40;;;;;;;;;;5070018;28;20178;-65
2021/10/01 05:57:26;;;;;;;0.40;0.40;;;;;;;;;;5073076;28;20182;-67
2021/10/01 05:59:53;;;;;;;0.40;0.40;;;;;;;;;;5074626;28;20595;-66
2021/10/01 06:02:19;;;;;;;0.40;0.40;;;;;;;;;;5074705;28;20254;-65
2021/10/01 06:04:46;;;;;;;0.40;0.40;;;;;;;;;;5074542;28;20657;-66
2021/10/01 06:07:12;;;;;;;0.40;0.40;;;;;;;;;;5074536;28;20201;-66
2021/10/01 06:09:42;;;;;;;0.40;0.40;;;;;;;;;;5074523;28;20616;-64
2021/10/01 06:12:09;;;;;;;0.40;0.40;;;;;;;;;;5074479;28;20194;-66
2021/10/01 06:14:36;;;;;;;0.40;0.40;;;;;;;;;;5074360;28;20202;-66
2021/10/01 06:17:02;;;;;;;0.40;0.40;;;;;;;;;;5074485;28;20705;-67
2021/10/01 06:19:28;;;;;;;0.40;0.40;;;;;;;;;;5074247;28;20229;-68
2021/10/01 06:21:56;;;;;;;0.40;0.40;;;;;;;;;;5074087;28;20218;-67
2021/10/01 06:24:22;;;;;;;0.40;0.40;;;;;;;;;;5074699;28;20202;-67
2021/10/01 06:26:48;;;;;;;0.40;0.40;;;;;;;;;;5074273;28;20541;-66
2021/10/01 06:29:15;;;;;;;0.40;0.40;;;;;;;;;;5072799;28;20215;-68
2021/10/01 06:31:41;;;;;;;0.40;0.40;;;;;;;;;;5074020;28;20240;-64
2021/10/01 06:34:07;;;;;;;0.40;0.40;;;;;;;;;;5074607;28;20181;-66
2021/10/01 06:36:33;;;;;;;0.40;0.40;;;;;;;;;;5072292;28;20406;-65
2021/10/01 06:38:59;;;;;;;0.40;0.40;;;;;;;;;;5073992;28;20494;-64
2021/10/01 06:41:25;;;;;;;0.40;0.40;;;;;;;;;;5073832;28;20785;-67
2021/10/01 06:43:58;;;;;;;0.40;0.40;;;;;;;;;;5073295;28;20180;-65
2021/10/01 06:46:33;;;;;;;0.40;0.40;;;;;;;;;;5074101;28;20171;-65
2021/10/01 06:49:24;;;;;;;0.40;0.40;;;;;;;;;;5074176;28;20209;-64
2021/10/01 08:19:24;;;;;;;0.30;0.30;;;;;;;;;;5072286;28;20233;-67
2021/10/01 08:21:51;;;;;;;0.40;0.40;;;;;;;;;;5071836;28;20226;-64
2021/10/01 08:24:17;;;;;;;0.40;0.40;;;;;;;;;;5071621;28;20516;-66
2021/10/01 08:26:45;;;;;;;0.50;0.50;;;;;;;;;;5071848;28;20179;-65
2021/10/01 08:29:11;;;;;;;0.30;0.30;;;;;;;;;;5071445;28;20203;-65
2021/10/01 08:31:37;;;;;;;0.30;0.30;;;;;;;;;;5071663;28;20194;-65
2021/10/01 08:34:03;;;;;;;0.40;0.40;;;;;;;;;;5071832;28;20168;-67
2021/10/01 08:36:29;;;;;;;0.30;0.30;;;;;;;;;;5071479;28;20163;-67
2021/10/01 08:38:55;;;;;;;0.40;0.40;;;;;;;;;;5071917;28;20793;-63
2021/10/01 08:41:22;;;;;;;0.30;0.30;;;;;;;;;;5071439;28;20465;-65
2021/10/01 08:43:48;;;;;;;0.30;0.30;;;;;;;;;;5071740;28;20277;-66
2021/10/01 08:46:14;;;;;;;0.40;0.40;;;;;;;;;;5071570;28;20179;-66
2021/10/01 08:48:42;;;;;;;0.30;0.30;;;;;;;;;;5071886;28;20191;-65
2021/10/01 08:51:09;;;;;;;0.30;0.30;;;;;;;;;;5070971;28;20433;-66
2021/10/01 08:53:35;;;;;;;0.30;0.30;;;;;;;;;;5070999;28;20870;-66
2021/10/01 08:56:02;;;;;;;0.30;0.30;;;;;;;;;;5071524;28;20414;-65
2021/10/01 08:58:28;;;;;;;0.30;0.30;;;;;;;;;;5070305;28;20432;-66
2021/10/01 09:00:57;;;;;;;0.30;0.30;;;;;;;;;;5070857;28;20400;-66
2021/10/01 09:03:23;;;;;;;0.30;0.30;;;;;;;;;;5071540;28;20836;-66
2021/10/01 09:05:49;;;;;;;0.30;0.30;;;;;;;;;;5071280;28;20902;-67
2021/10/01 09:08:22;;;;;;;0.30;0.30;;;;;;;;;;5070834;28;20522;-66
2021/10/01 09:11:11;;;;;;;0.30;0.30;;;;;;;;;;5071102;28;20398;-67
2021/10/01 09:13:37;;;;;;;0.30;0.30;;;;;;;;;;5071454;28;20401;-67
2021/10/01 09:16:04;;;;;;;0.30;0.30;;;;;;;;;;5071175;28;20416;-67
2021/10/01 09:18:31;;;;;;;0.30;0.20;;;;;;;;;;5071425;28;20426;-67
2021/10/01 09:21:14;;;;;;;0.30;0.30;;;;;;;;;;5070464;28;20419;-66
2021/10/01 09:23:43;;;;;;;0.30;0.20;;;;;;;;;;5071400;28;20898;-67
2021/10/01 09:26:11;;;;;;;0.30;0.20;;;;;;;;;;5071373;28;20777;-68
2021/10/01 09:29:05;;;;;;;0.30;0.20;;;;;;;;;;5070678;28;20453;-65
2021/10/01 09:31:31;;;;;;;0.30;0.20;;;;;;;;;;5069262;28;20451;-65
2021/10/01 09:33:57;;;;;;;0.20;0.20;;;;;;;;;;5071439;28;20415;-68
2021/10/01 09:36:26;;;;;;;0.20;0.20;;;;;;;;;;5071179;28;20392;-68
2021/10/01 09:38:52;;;;;;;0.20;0.20;;;;;;;;;;5071183;28;20405;-69
2021/10/01 09:41:25;;;;;;;0.20;0.20;;;;;;;;;;5070422;28;20504;-66
2021/10/01 09:44:11;;;;;;;0.20;0.20;;;;;;;;;;5070994;28;20552;-66
2021/10/01 09:46:39;;;;;;;0.20;0.20;;;;;;;;;;5071347;28;20409;-68
2021/10/01 09:49:05;;;;;;;0.20;0.20;;;;;;;;;;5071144;28;20455;-67
2021/10/01 09:51:32;;;;;;;0.20;0.20;;;;;;;;;;5070747;28;20421;-68
2021/10/01 09:54:01;;;;;;;0.20;0.20;;;;;;;;;;5070200;28;20407;-67
2021/10/01 09:56:31;;;;;;;0.20;0.20;;;;;;;;;;5071292;28;20505;-67
2021/10/01 09:59:04;;;;;;;0.20;0.20;;;;;;;;;;5071287;28;20386;-67
2021/10/01 10:01:30;;;;;;;0.20;0.20;;;;;;;;;;5070737;28;20778;-68
2021/10/01 10:03:56;;;;;;;0.20;0.20;;;;;;;;;;5072986;28;20413;-67
2021/10/01 10:06:22;;;;;;;0.20;0.20;;;;;;;;;;5074062;28;20463;-67
2021/10/01 10:08:48;;;;;;;0.20;0.20;;;;;;;;;;5074572;28;20884;-68
2021/10/01 10:11:19;;;;;;;0.20;0.20;;;;;;;;;;5074263;28;20460;-67
2021/10/01 10:13:47;;;;;;;0.20;0.20;;;;;;;;;;5074742;28;20978;-67
2021/10/01 10:16:13;;;;;;;0.20;0.20;;;;;;;;;;5074337;28;20744;-67
2021/10/01 10:18:39;;;;;;;0.20;0.20;;;;;;;;;;5074173;28;20416;-67
2021/10/01 10:21:05;;;;;;;0.20;0.20;;;;;;;;;;5074021;28;20981;-67
2021/10/01 10:23:31;;;;;;;0.20;0.20;;;;;;;;;;5074376;28;20933;-67
2021/10/01 10:25:58;;;;;;;0.20;0.20;;;;;;;;;;5074343;28;20523;-68
2021/10/01 10:28:24;;;;;;;0.20;0.20;;;;;;;;;;5073941;28;20824;-66
2021/10/01 10:30:51;;;;;;;0.20;0.20;;;;;;;;;;5073622;28;20423;-68
2021/10/01 10:33:35;;;;;;;0.20;0.20;;;;;;;;;;5074173;28;20404;-68
2021/10/01 10:36:01;;;;;;;0.20;0.20;;;;;;;;;;5074444;28;20868;-66
2021/10/01 10:38:34;;;;;;;0.20;0.20;;;;;;;;;;5073573;28;20900;-66
2021/10/01 10:41:20;;;;;;;0.20;0.20;;;;;;;;;;5073919;28;20423;-66
2021/10/01 10:43:48;;;;;;;0.20;0.20;;;;;;;;;;5073987;28;20403;-66
2021/10/01 10:46:33;;;;;;;0.20;0.20;;;;;;;;;;5073816;28;20445;-69
2021/10/01 10:49:18;;;;;;;0.20;0.20;;;;;;;;;;5073295;28;20520;-65
2021/10/01 10:52:04;;;;;;;0.20;0.20;;;;;;;;;;5073635;28;20432;-65
2021/10/01 10:54:32;;;;;;;0.20;0.20;;;;;;;;;;5072556;28;20401;-68
2021/10/01 10:57:16;;;;;;;0.20;0.20;;;;;;;;;;5073738;28;20411;-66
2021/10/01 10:59:49;;;;;;;0.20;0.20;;;;;;;;;;5073379;28;20499;-67
2021/10/01 11:02:44;;;;;;;0.20;0.20;;;;;;;;;;5073340;28;20412;-66
2021/10/01 11:05:25;;;;;;;0.20;0.20;;;;;;;;;;5073847;28;20411;-66
2021/10/01 11:08:01;;;;;;;0.20;0.20;;;;;;;;;;5073134;28;20445;-65
2021/10/01 11:10:47;;;;;;;0.20;0.20;;;;;;;;;;5073241;28;20428;-66
2021/10/01 11:13:21;;;;;;;0.20;0.20;;;;;;;;;;5073163;28;20799;-66
2021/10/01 11:16:05;;;;;;;0.20;0.20;;;;;;;;;;5072595;28;20417;-65
2021/10/01 11:18:31;;;;;;;0.20;0.20;;;;;;;;;;5073156;28;20469;-68
2021/10/01 11:20:57;;;;;;;0.20;0.20;;;;;;;;;;5081140;22;21427;-68
2021/10/01 11:23:23;;;;;;;0.20;0.20;;;;;;;;;;5011221;28;20957;-69
2021/10/01 11:25:50;;;;;;;0.20;0.20;;;;;;;;;;5013155;28;20466;-68
2021/10/01 11:28:16;;;;;;;0.20;0.20;;;;;;;;;;5012096;28;20466;-68
2021/10/01 11:30:50;;;;;;;0.20;0.20;;;;;;;;;;5012912;28;20437;-68
2021/10/01 11:33:16;;;;;;;0.20;0.20;;;;;;;;;;5013162;28;20491;-68
2021/10/01 11:35:49;;;;;;;0.20;0.20;;;;;;;;;;5013012;28;20508;-68
2021/10/01 11:38:36;;;;;;;0.20;0.20;;;;;;;;;;5013182;28;20409;-68
2021/10/01 11:41:10;;;;;;;0.20;0.20;;;;;;;;;;5012961;28;20478;-68
2021/10/01 11:43:53;;;;;;;0.20;0.20;;;;;;;;;;5012787;28;20417;-68
2021/10/01 11:46:45;;;;;;;0.20;0.20;;;;;;;;;;5012728;28;20409;-68
2021/10/01 11:49:32;;;;;;;0.20;0.20;;;;;;;;;;5011141;28;20506;-68
2021/10/01 11:52:03;;;;;;;0.20;0.20;;;;;;;;;;5012473;28;20486;-69
2021/10/01 11:54:30;;;;;;;0.20;0.20;;;;;;;;;;5012678;28;20448;-68
2021/10/01 11:56:57;;;;;;;0.20;0.20;;;;;;;;;;5012555;28;20451;-68
2021/10/01 11:59:25;;;;;;;0.20;0.20;;;;;;;;;;5012909;28;20475;-69
2021/10/01 12:02:00;;;;;;;0.20;0.20;;;;;;;;;;5012632;28;20530;-68
2021/10/01 12:04:35;;;;;;;0.20;0.20;;;;;;;;;;5012791;28;20417;-67
2021/10/01 12:07:01;;;;;;;0.20;0.20;;;;;;;;;;5012121;28;20408;-67
2021/10/01 12:09:28;;;;;;;0.20;0.20;;;;;;;;;;5012484;28;20457;-67
2021/10/01 12:11:54;;;;;;;0.20;0.20;;;;;;;;;;5012083;28;20437;-67
2021/10/01 12:14:21;;;;;;;0.20;0.20;;;;;;;;;;5010916;28;20436;-67
2021/10/01 12:16:54;;;;;;;0.20;0.20;;;;;;;;;;5012436;28;20416;-67
2021/10/01 12:19:23;;;;;;;0.20;0.20;;;;;;;;;;5011863;28;20417;-68
2021/10/01 12:22:00;;;;;;;0.20;0.20;;;;;;;;;;5012057;28;20450;-67
2021/10/01 12:24:26;;;;;;;0.20;0.20;;;;;;;;;;5012462;28;20781;-68
2021/10/01 12:26:52;;;;;;;0.20;0.20;;;;;;;;;;5012500;28;20787;-67
2021/10/01 12:29:19;;;;;;;0.20;0.20;;;;;;;;;;5011877;28;20459;-67
2021/10/01 12:31:48;;;;;;;0.20;0.20;;;;;;;;;;5011481;28;20411;-67
2021/10/01 12:34:16;;;;;;;0.20;0.20;;;;;;;;;;5012264;28;20503;-67
2021/10/01 12:36:43;;;;;;;0.20;0.20;;;;;;;;;;5012184;28;20390;-67
2021/10/01 12:39:10;;;;;;;0.20;0.20;;;;;;;;;;5012166;28;20413;-67
2021/10/01 12:41:36;;;;;;;0.20;0.20;;;;;;;;;;5011400;28;20504;-67
2021/10/01 12:44:03;;;;;;;0.20;0.20;;;;;;;;;;5011739;28;20405;-66
2021/10/01 12:46:33;;;;;;;0.20;0.20;;;;;;;;;;5012089;28;20491;-67
2021/10/01 12:49:16;;;;;;;0.20;0.20;;;;;;;;;;5010769;28;20547;-67
2021/10/01 12:51:44;;;;;;;0.20;0.20;;;;;;;;;;5010100;28;20498;-67
2021/10/01 12:54:20;;;;;;;0.20;0.20;;;;;;;;;;5011865;28;20849;-67
2021/10/01 12:56:46;;;;;;;0.20;0.20;;;;;;;;;;5011701;28;20404;-67
2021/10/01 12:59:12;;;;;;;0.20;0.20;;;;;;;;;;5012013;28;20395;-67
2021/10/01 13:01:38;;;;;;;0.20;0.20;;;;;;;;;;5011695;28;20411;-67
2021/10/01 13:04:04;;;;;;;0.20;0.20;;;;;;;;;;5011378;28;20409;-67
2021/10/01 13:06:30;;;;;;;0.20;0.20;;;;;;;;;;5011846;28;20391;-67
2021/10/01 13:08:56;;;;;;;0.20;0.20;;;;;;;;;;5011434;28;20430;-67
2021/10/01 13:11:22;;;;;;;0.20;0.20;;;;;;;;;;5011572;28;20402;-67
2021/10/01 13:13:48;;;;;;;0.20;0.20;;;;;;;;;;5011744;28;20387;-67
2021/10/01 13:16:23;;;;;;;0.20;0.20;;;;;;;;;;5011506;28;20436;-67
2021/10/01 13:19:02;;;;;;;0.20;0.20;;;;;;;;;;5011751;28;20419;-67
2021/10/01 13:21:28;;;;;;;0.20;0.20;;;;;;;;;;5011015;28;20422;-67
2021/10/01 13:23:54;;;;;;;0.20;0.20;;;;;;;;;;5011880;28;20882;-67
2021/10/01 13:26:22;;;;;;;0.20;0.20;;;;;;;;;;5009982;28;20420;-67
2021/10/01 13:28:49;;;;;;;0.20;0.20;;;;;;;;;;5010356;28;20426;-67
2021/10/01 13:31:16;;;;;;;0.20;0.20;;;;;;;;;;5010054;28;20520;-67
2021/10/01 13:33:42;;;;;;;0.20;0.20;;;;;;;;;;5011311;28;20987;-67
2021/10/01 13:36:08;;;;;;;0.20;0.20;;;;;;;;;;5011178;28;20880;-67
2021/10/01 13:38:35;;;;;;;0.20;0.20;;;;;;;;;;5013291;28;20495;-67
2021/10/01 13:41:02;;;;;;;0.20;0.20;;;;;;;;;;5015297;28;20941;-67
2021/10/01 13:43:28;;;;;;;0.20;0.20;;;;;;;;;;5014156;28;20791;-67
2021/10/01 13:45:55;;;;;;;0.20;0.20;;;;;;;;;;5015233;28;20471;-67
2021/10/01 13:48:21;;;;;;;0.20;0.20;;;;;;;;;;5014686;28;20452;-67
2021/10/01 13:50:47;;;;;;;0.20;0.20;;;;;;;;;;5015047;28;20432;-67
2021/10/01 13:53:14;;;;;;;0.20;0.20;;;;;;;;;;5015268;28;20445;-67
2021/10/01 13:55:40;;;;;;;0.30;0.30;;;;;;;;;;5015168;28;20412;-67
2021/10/01 13:58:06;;;;;;;0.20;0.20;;;;;;;;;;5014725;28;20386;-67
2021/10/01 14:00:32;;;;;;;0.20;0.20;;;;;;;;;;5014427;28;20432;-67
2021/10/01 14:02:58;;;;;;;0.20;0.20;;;;;;;;;;5015155;28;20401;-68
2021/10/01 14:05:24;;;;;;;0.20;0.20;;;;;;;;;;5015024;28;20383;-67
2021/10/01 14:07:50;;;;;;;0.20;0.20;;;;;;;;;;5014991;28;20441;-67
2021/10/01 14:10:17;;;;;;;0.20;0.20;;;;;;;;;;5013916;28;20447;-67
2021/10/01 14:12:44;;;;;;;0.20;0.20;;;;;;;;;;5014834;28;20460;-67
2021/10/01 14:15:10;;;;;;;0.20;0.20;;;;;;;;;;5015328;28;20383;-67
2021/10/01 14:17:37;;;;;;;0.20;0.20;;;;;;;;;;5014786;28;20973;-68
2021/10/01 14:20:04;;;;;;;0.20;0.20;;;;;;;;;;5014593;28;20404;-67
2021/10/01 14:22:30;;;;;;;0.20;0.20;;;;;;;;;;5013892;28;21238;-67
2021/10/01 14:24:57;;;;;;;0.20;0.20;;;;;;;;;;5014754;28;20423;-68
2021/10/01 14:27:23;;;;;;;0.20;0.20;;;;;;;;;;5014737;28;20438;-67
2021/10/01 14:29:49;;;;;;;0.20;0.20;;;;;;;;;;5014533;28;20914;-68
2021/10/01 14:32:15;;;;;;;0.20;0.20;;;;;;;;;;5013721;28;20403;-67
2021/10/01 14:34:41;;;;;;;0.20;0.20;;;;;;;;;;5014087;28;20379;-68
2021/10/01 14:37:07;;;;;;;0.20;0.20;;;;;;;;;;5014474;28;20383;-67
2021/10/01 14:39:33;;;;;;;0.20;0.20;;;;;;;;;;5014414;28;20409;-67
2021/10/01 14:41:59;;;;;;;0.20;0.20;;;;;;;;;;5014049;28;20424;-67
2021/10/01 14:44:25;;;;;;;0.20;0.20;;;;;;;;;;5013776;28;20878;-67
2021/10/01 14:46:51;;;;;;;0.20;0.20;;;;;;;;;;5013946;28;20448;-67
2021/10/01 14:49:17;;;;;;;0.20;0.20;;;;;;;;;;5013239;28;20427;-67
2021/10/01 14:51:44;;;;;;;0.20;0.20;;;;;;;;;;5013740;28;20432;-67
2021/10/01 14:54:10;;;;;;;0.20;0.20;;;;;;;;;;5013902;28;20409;-67
2021/10/01 14:56:37;;;;;;;0.20;0.20;;;;;;;;;;5013762;28;20915;-67
2021/10/01 14:59:03;;;;;;;0.30;0.30;;;;;;;;;;5013774;28;20423;-67
2021/10/01 15:01:29;;;;;;;0.20;0.20;;;;;;;;;;5012883;28;20399;-67
2021/10/01 15:03:55;;;;;;;0.20;0.20;;;;;;;;;;5014112;28;20463;-67
2021/10/01 15:06:21;;;;;;;0.20;0.20;;;;;;;;;;5013406;28;20426;-67
2021/10/01 15:08:47;;;;;;;0.20;0.20;;;;;;;;;;5013749;28;20464;-67
2021/10/01 15:11:13;;;;;;;0.20;0.20;;;;;;;;;;5013271;28;20944;-67
2021/10/01 15:13:39;;;;;;;0.20;0.20;;;;;;;;;;5013176;28;20380;-67
2021/10/01 15:16:05;;;;;;;0.20;0.20;;;;;;;;;;5013573;28;20383;-67
2021/10/01 15:18:32;;;;;;;0.20;0.20;;;;;;;;;;5011963;28;20416;-67
2021/10/01 15:20:58;;;;;;;0.20;0.20;;;;;;;;;;5013223;28;20493;-67
2021/10/01 15:23:24;;;;;;;0.20;0.20;;;;;;;;;;5013390;28;20409;-67
2021/10/01 15:25:50;;;;;;;0.30;0.30;;;;;;;;;;5013425;28;20775;-67
2021/10/01 15:28:16;;;;;;;0.20;0.20;;;;;;;;;;5012843;28;20562;-68
2021/10/01 15:30:43;;;;;;;0.20;0.20;;;;;;;;;;5012944;28;20439;-67
2021/10/01 15:33:09;;;;;;;0.20;0.20;;;;;;;;;;5013367;28;20409;-67
2021/10/01 15:35:35;;;;;;;0.20;0.20;;;;;;;;;;5013100;28;20413;-67
2021/10/01 15:38:03;;;;;;;0.20;0.20;;;;;;;;;;5013331;28;20467;-68
2021/10/01 15:40:32;;;;;;;0.20;0.20;;;;;;;;;;5012448;28;20400;-67
2021/10/01 15:42:58;;;;;;;0.20;0.20;;;;;;;;;;5013137;28;20405;-67
2021/10/01 15:45:25;;;;;;;0.20;0.20;;;;;;;;;;5013308;28;20983;-67
2021/10/01 15:47:51;;;;;;;0.20;0.20;;;;;;;;;;5012761;28;20409;-67
2021/10/01 15:50:18;;;;;;;0.20;0.20;;;;;;;;;;5012442;28;20506;-67
2021/10/01 15:52:47;;;;;;;0.20;0.20;;;;;;;;;;5012837;28;20845;-67
2021/10/01 15:55:13;;;;;;;0.20;0.20;;;;;;;;;;5012996;28;20409;-67
2021/10/01 15:57:39;;;;;;;0.20;0.20;;;;;;;;;;5011532;28;20398;-67
2021/10/01 16:00:06;;;;;;;0.20;0.20;;;;;;;;;;5012433;28;20406;-67
2021/10/01 16:02:33;;;;;;;0.20;0.20;;;;;;;;;;5011826;28;20523;-67
2021/10/01 16:04:59;;;;;;;0.20;0.20;;;;;;;;;;5016880;28;20420;-67
2021/10/01 16:07:25;;;;;;;0.20;0.20;;;;;;;;;;5031129;28;20507;-67
2021/10/01 16:09:51;;;;;;;0.20;0.20;;;;;;;;;;5032122;28;20620;-67
2021/10/01 16:12:18;;;;;;;0.20;0.20;;;;;;;;;;5031594;28;20402;-67
2021/10/01 16:14:46;;;;;;;0.20;0.20;;;;;;;;;;5032026;28;20505;-67
2021/10/01 16:17:13;;;;;;;0.20;0.20;;;;;;;;;;5031583;28;20438;-67
2021/10/01 16:19:39;;;;;;;0.20;0.20;;;;;;;;;;5031088;28;20911;-67